sensor_id;sensor_type;location;lat;lon;timestamp;pressure;altitude;pressure_sealevel;temperature;humidity
33161;BME280;19522;45.656;11.302;2022-09-06T00:00:06;98803.78;;;19.18;98.58
33161;BME280;19522;45.656;11.302;2022-09-06T00:02:34;98823.78;;;19.25;99.30
33161;BME280;19522;45.656;11.302;2022-09-06T00:05:00;98800.06;;;19.12;99.53
33161;BME280;19522;45.656;11.302;2022-09-06T00:07:26;98746.41;;;18.73;99.70
33161;BME280;19522;45.656;11.302;2022-09-06T00:09:51;98819.94;;;19.26;99.50
33161;BME280;19522;45.656;11.302;2022-09-06T00:12:17;98796.53;;;19.05;100.00
33161;BME280;19522;45.656;11.302;2022-09-06T00:14:43;98806.72;;;19.05;100.00
33161;BME280;19522;45.656;11.302;2022-09-06T00:17:08;98800.75;;;19.08;100.00
33161;BME280;19522;45.656;11.302;2022-09-06T00:19:34;98783.97;;;18.97;100.00
33161;BME280;19522;45.656;11.302;2022-09-06T00:21:59;98767.88;;;18.82;100.00
33161;BME280;19522;45.656;11.302;2022-09-06T00:24:25;98776.50;;;18.86;100.00
33161;BME280;19522;45.656;11.302;2022-09-06T00:26:50;98794.91;;;19.04;99.65
33161;BME280;19522;45.656;11.302;2022-09-06T00:29:16;98806.97;;;19.03;100.00
33161;BME280;19522;45.656;11.302;2022-09-06T00:31:41;98782.75;;;18.93;100.00
33161;BME280;19522;45.656;11.302;2022-09-06T00:34:07;98806.13;;;19.03;100.00
33161;BME280;19522;45.656;11.302;2022-09-06T00:36:32;98784.44;;;18.94;100.00
33161;BME280;19522;45.656;11.302;2022-09-06T00:38:58;98796.53;;;18.93;100.00
33161;BME280;19522;45.656;11.302;2022-09-06T00:41:24;98762.56;;;18.69;100.00
33161;BME280;19522;45.656;11.302;2022-09-06T00:43:49;98763.28;;;18.76;100.00
33161;BME280;19522;45.656;11.302;2022-09-06T00:46:18;98753.00;;;18.72;100.00
33161;BME280;19522;45.656;11.302;2022-09-06T00:48:46;98793.75;;;18.93;100.00
33161;BME280;19522;45.656;11.302;2022-09-06T00:51:14;98793.13;;;18.91;100.00
33161;BME280;19522;45.656;11.302;2022-09-06T00:53:41;98789.41;;;18.85;100.00
33161;BME280;19522;45.656;11.302;2022-09-06T00:56:06;98781.84;;;18.81;100.00
33161;BME280;19522;45.656;11.302;2022-09-06T00:58:33;98773.13;;;18.84;100.00
33161;BME280;19522;45.656;11.302;2022-09-06T01:00:59;98754.31;;;18.69;100.00
33161;BME280;19522;45.656;11.302;2022-09-06T01:03:25;98741.72;;;18.61;100.00
33161;BME280;19522;45.656;11.302;2022-09-06T01:11:33;98790.22;;;19.05;100.00
33161;BME280;19522;45.656;11.302;2022-09-06T01:14:43;98792.63;;;19.13;99.77
33161;BME280;19522;45.656;11.302;2022-09-06T01:23:35;98793.59;;;19.30;97.30
33161;BME280;19522;45.656;11.302;2022-09-06T01:28:52;98755.88;;;19.07;99.29
33161;BME280;19522;45.656;11.302;2022-09-06T01:36:49;98730.50;;;18.63;100.00
33161;BME280;19522;45.656;11.302;2022-09-06T01:39:33;98777.25;;;18.93;100.00
33161;BME280;19522;45.656;11.302;2022-09-06T01:42:25;98744.88;;;18.77;100.00
33161;BME280;19522;45.656;11.302;2022-09-06T01:44:55;98781.34;;;19.03;100.00
33161;BME280;19522;45.656;11.302;2022-09-06T01:47:38;98759.69;;;18.94;100.00
33161;BME280;19522;45.656;11.302;2022-09-06T01:58:28;98780.38;;;18.97;100.00
33161;BME280;19522;45.656;11.302;2022-09-06T02:04:02;98779.09;;;18.99;99.00
33161;BME280;19522;45.656;11.302;2022-09-06T02:06:38;98782.06;;;18.98;97.29
33161;BME280;19522;45.656;11.302;2022-09-06T02:09:09;98787.34;;;18.99;98.45
33161;BME280;19522;45.656;11.302;2022-09-06T02:11:51;98730.06;;;18.47;99.99
33161;BME280;19522;45.656;11.302;2022-09-06T02:14:34;98788.28;;;18.75;100.00
33161;BME280;19522;45.656;11.302;2022-09-06T02:17:01;98792.91;;;18.62;100.00
33161;BME280;19522;45.656;11.302;2022-09-06T02:19:52;98784.34;;;18.71;100.00
33161;BME280;19522;45.656;11.302;2022-09-06T02:22:22;98776.69;;;18.73;100.00
33161;BME280;19522;45.656;11.302;2022-09-06T02:24:51;98770.09;;;18.74;100.00
33161;BME280;19522;45.656;11.302;2022-09-06T02:27:18;98755.16;;;18.69;99.32
33161;BME280;19522;45.656;11.302;2022-09-06T02:29:44;98756.16;;;18.57;99.94
33161;BME280;19522;45.656;11.302;2022-09-06T02:32:19;98787.34;;;18.81;99.73
33161;BME280;19522;45.656;11.302;2022-09-06T02:34:47;98784.59;;;18.81;100.00
33161;BME280;19522;45.656;11.302;2022-09-06T02:37:14;98778.84;;;18.71;100.00
33161;BME280;19522;45.656;11.302;2022-09-06T02:39:40;98785.25;;;18.64;100.00
33161;BME280;19522;45.656;11.302;2022-09-06T02:42:08;98766.47;;;18.61;100.00
33161;BME280;19522;45.656;11.302;2022-09-06T02:44:34;98762.25;;;18.47;100.00
33161;BME280;19522;45.656;11.302;2022-09-06T02:47:00;98789.94;;;18.64;100.00
33161;BME280;19522;45.656;11.302;2022-09-06T02:49:27;98786.81;;;18.60;100.00
33161;BME280;19522;45.656;11.302;2022-09-06T02:51:53;98796.63;;;18.68;100.00
33161;BME280;19522;45.656;11.302;2022-09-06T02:54:18;98785.00;;;18.66;100.00
33161;BME280;19522;45.656;11.302;2022-09-06T02:56:44;98721.03;;;18.28;100.00
33161;BME280;19522;45.656;11.302;2022-09-06T02:59:09;98777.72;;;18.60;100.00
33161;BME280;19522;45.656;11.302;2022-09-06T03:01:35;98773.88;;;18.61;100.00
33161;BME280;19522;45.656;11.302;2022-09-06T03:04:00;98768.16;;;18.62;100.00
33161;BME280;19522;45.656;11.302;2022-09-06T03:06:26;98752.59;;;18.56;100.00
33161;BME280;19522;45.656;11.302;2022-09-06T03:08:52;98768.78;;;18.76;98.61
33161;BME280;19522;45.656;11.302;2022-09-06T03:11:17;98760.97;;;18.61;99.18
33161;BME280;19522;45.656;11.302;2022-09-06T03:13:43;98765.31;;;18.38;100.00
33161;BME280;19522;45.656;11.302;2022-09-06T03:16:08;98771.81;;;18.26;100.00
33161;BME280;19522;45.656;11.302;2022-09-06T03:18:34;98755.34;;;18.26;100.00
33161;BME280;19522;45.656;11.302;2022-09-06T03:21:00;98768.31;;;18.37;100.00
33161;BME280;19522;45.656;11.302;2022-09-06T03:23:27;98726.31;;;18.11;100.00
33161;BME280;19522;45.656;11.302;2022-09-06T03:25:53;98771.72;;;18.32;100.00
33161;BME280;19522;45.656;11.302;2022-09-06T03:28:20;98750.97;;;18.18;100.00
33161;BME280;19522;45.656;11.302;2022-09-06T03:30:47;98743.72;;;18.24;100.00
33161;BME280;19522;45.656;11.302;2022-09-06T03:33:14;98776.69;;;18.42;100.00
33161;BME280;19522;45.656;11.302;2022-09-06T03:35:46;98772.94;;;18.36;100.00
33161;BME280;19522;45.656;11.302;2022-09-06T03:38:12;98746.09;;;18.20;100.00
33161;BME280;19522;45.656;11.302;2022-09-06T03:40:38;98779.19;;;18.44;100.00
33161;BME280;19522;45.656;11.302;2022-09-06T03:43:03;98764.78;;;18.30;100.00
33161;BME280;19522;45.656;11.302;2022-09-06T03:45:29;98713.66;;;18.10;100.00
33161;BME280;19522;45.656;11.302;2022-09-06T03:47:54;98766.47;;;18.61;99.95
33161;BME280;19522;45.656;11.302;2022-09-06T03:50:20;98753.38;;;18.45;100.00
33161;BME280;19522;45.656;11.302;2022-09-06T03:52:45;98758.13;;;18.37;100.00
33161;BME280;19522;45.656;11.302;2022-09-06T03:55:11;98732.69;;;18.12;100.00
33161;BME280;19522;45.656;11.302;2022-09-06T03:57:36;98767.19;;;18.38;100.00
33161;BME280;19522;45.656;11.302;2022-09-06T04:00:03;98779.66;;;18.41;100.00
33161;BME280;19522;45.656;11.302;2022-09-06T04:02:28;98769.56;;;18.34;100.00
33161;BME280;19522;45.656;11.302;2022-09-06T04:04:54;98757.84;;;18.27;100.00
33161;BME280;19522;45.656;11.302;2022-09-06T04:07:21;98772.25;;;18.41;99.34
33161;BME280;19522;45.656;11.302;2022-09-06T04:09:47;98772.41;;;18.46;98.75
33161;BME280;19522;45.656;11.302;2022-09-06T04:12:12;98745.22;;;18.38;98.26
33161;BME280;19522;45.656;11.302;2022-09-06T04:14:38;98752.63;;;18.37;98.80
33161;BME280;19522;45.656;11.302;2022-09-06T04:17:04;98731.28;;;18.21;99.54
33161;BME280;19522;45.656;11.302;2022-09-06T04:19:29;98719.91;;;18.17;99.42
33161;BME280;19522;45.656;11.302;2022-09-06T04:21:55;98703.97;;;18.08;98.38
33161;BME280;19522;45.656;11.302;2022-09-06T04:24:20;98751.41;;;18.33;99.25
33161;BME280;19522;45.656;11.302;2022-09-06T04:26:46;98748.06;;;18.31;100.00
33161;BME280;19522;45.656;11.302;2022-09-06T04:29:11;98748.97;;;18.25;100.00
33161;BME280;19522;45.656;11.302;2022-09-06T04:31:37;98744.91;;;18.28;100.00
33161;BME280;19522;45.656;11.302;2022-09-06T04:34:03;98738.91;;;18.19;100.00
33161;BME280;19522;45.656;11.302;2022-09-06T04:36:28;98747.41;;;18.17;100.00
33161;BME280;19522;45.656;11.302;2022-09-06T04:38:54;98719.38;;;17.90;100.00
33161;BME280;19522;45.656;11.302;2022-09-06T04:41:20;98753.59;;;18.13;100.00
33161;BME280;19522;45.656;11.302;2022-09-06T04:43:46;98766.41;;;18.19;100.00
33161;BME280;19522;45.656;11.302;2022-09-06T04:46:24;98761.28;;;18.22;100.00
33161;BME280;19522;45.656;11.302;2022-09-06T04:48:51;98767.41;;;18.25;100.00
33161;BME280;19522;45.656;11.302;2022-09-06T04:51:17;98761.41;;;18.28;100.00
33161;BME280;19522;45.656;11.302;2022-09-06T04:53:43;98771.59;;;18.27;100.00
33161;BME280;19522;45.656;11.302;2022-09-06T04:56:14;98759.47;;;18.16;100.00
33161;BME280;19522;45.656;11.302;2022-09-06T04:58:41;98770.16;;;18.25;100.00
33161;BME280;19522;45.656;11.302;2022-09-06T05:01:06;98760.47;;;18.22;100.00
33161;BME280;19522;45.656;11.302;2022-09-06T05:03:32;98770.66;;;18.15;100.00
33161;BME280;19522;45.656;11.302;2022-09-06T05:06:24;98761.16;;;18.17;100.00
33161;BME280;19522;45.656;11.302;2022-09-06T05:08:49;98769.28;;;18.24;100.00
33161;BME280;19522;45.656;11.302;2022-09-06T05:11:15;98752.66;;;18.19;100.00
33161;BME280;19522;45.656;11.302;2022-09-06T05:13:41;98762.09;;;18.23;100.00
33161;BME280;19522;45.656;11.302;2022-09-06T05:16:07;98766.22;;;18.32;100.00
33161;BME280;19522;45.656;11.302;2022-09-06T05:18:37;98747.78;;;18.21;99.99
33161;BME280;19522;45.656;11.302;2022-09-06T05:21:02;98755.22;;;18.32;100.00
33161;BME280;19522;45.656;11.302;2022-09-06T05:23:28;98749.53;;;18.15;100.00
33161;BME280;19522;45.656;11.302;2022-09-06T05:25:54;98770.44;;;18.35;100.00
33161;BME280;19522;45.656;11.302;2022-09-06T05:28:19;98746.22;;;18.25;99.88
33161;BME280;19522;45.656;11.302;2022-09-06T05:30:46;98727.22;;;18.24;99.59
33161;BME280;19522;45.656;11.302;2022-09-06T05:33:13;98771.47;;;18.52;98.84
33161;BME280;19522;45.656;11.302;2022-09-06T05:35:39;98757.19;;;18.44;99.21
33161;BME280;19522;45.656;11.302;2022-09-06T05:38:04;98763.84;;;18.55;98.52
33161;BME280;19522;45.656;11.302;2022-09-06T05:40:30;98759.06;;;18.62;97.58
33161;BME280;19522;45.656;11.302;2022-09-06T05:42:56;98757.31;;;18.37;100.00
33161;BME280;19522;45.656;11.302;2022-09-06T05:45:21;98757.50;;;18.35;100.00
33161;BME280;19522;45.656;11.302;2022-09-06T05:47:47;98753.94;;;18.35;100.00
33161;BME280;19522;45.656;11.302;2022-09-06T05:50:12;98763.53;;;18.44;100.00
33161;BME280;19522;45.656;11.302;2022-09-06T05:52:38;98722.19;;;18.20;100.00
33161;BME280;19522;45.656;11.302;2022-09-06T05:55:05;98727.22;;;18.24;100.00
33161;BME280;19522;45.656;11.302;2022-09-06T05:57:31;98770.16;;;18.55;100.00
33161;BME280;19522;45.656;11.302;2022-09-06T05:59:57;98760.38;;;18.59;100.00
33161;BME280;19522;45.656;11.302;2022-09-06T06:02:23;98772.94;;;18.67;100.00
33161;BME280;19522;45.656;11.302;2022-09-06T06:04:49;98768.34;;;18.79;100.00
33161;BME280;19522;45.656;11.302;2022-09-06T06:07:16;98763.94;;;18.90;100.00
33161;BME280;19522;45.656;11.302;2022-09-06T06:09:42;98752.63;;;18.98;100.00
33161;BME280;19522;45.656;11.302;2022-09-06T06:12:07;98752.78;;;19.15;99.25
33161;BME280;19522;45.656;11.302;2022-09-06T06:14:33;98775.09;;;19.38;98.81
33161;BME280;19522;45.656;11.302;2022-09-06T06:16:59;98744.06;;;19.54;95.75
33161;BME280;19522;45.656;11.302;2022-09-06T06:19:25;98728.63;;;19.53;94.25
33161;BME280;19522;45.656;11.302;2022-09-06T06:21:51;98764.66;;;19.87;94.34
33161;BME280;19522;45.656;11.302;2022-09-06T06:24:17;98763.34;;;20.02;93.54
33161;BME280;19522;45.656;11.302;2022-09-06T06:26:46;98762.75;;;20.40;91.08
33161;BME280;19522;45.656;11.302;2022-09-06T06:29:12;98757.69;;;20.78;88.34
33161;BME280;19522;45.656;11.302;2022-09-06T06:31:39;98751.97;;;21.31;85.44
33161;BME280;19522;45.656;11.302;2022-09-06T06:34:04;98740.66;;;21.67;82.28
33161;BME280;19522;45.656;11.302;2022-09-06T06:36:32;98749.84;;;22.12;78.85
33161;BME280;19522;45.656;11.302;2022-09-06T06:38:59;98748.94;;;22.28;78.20
33161;BME280;19522;45.656;11.302;2022-09-06T06:41:27;98743.41;;;22.06;79.56
33161;BME280;19522;45.656;11.302;2022-09-06T06:43:55;98752.59;;;22.12;79.30
33161;BME280;19522;45.656;11.302;2022-09-06T06:46:23;98751.84;;;22.16;79.24
33161;BME280;19522;45.656;11.302;2022-09-06T06:48:49;98749.91;;;22.17;79.63
33161;BME280;19522;45.656;11.302;2022-09-06T06:51:17;98757.09;;;22.18;79.26
33161;BME280;19522;45.656;11.302;2022-09-06T06:53:44;98753.91;;;22.26;78.95
33161;BME280;19522;45.656;11.302;2022-09-06T06:58:50;98728.44;;;22.24;76.82
33161;BME280;19522;45.656;11.302;2022-09-06T07:01:17;98736.19;;;22.27;77.13
33161;BME280;19522;45.656;11.302;2022-09-06T07:03:44;98759.22;;;22.33;78.07
33161;BME280;19522;45.656;11.302;2022-09-06T07:06:09;98757.97;;;22.40;77.53
33161;BME280;19522;45.656;11.302;2022-09-06T07:08:35;98707.31;;;22.18;77.23
33161;BME280;19522;45.656;11.302;2022-09-06T07:11:05;98751.50;;;22.57;77.08
33161;BME280;19522;45.656;11.302;2022-09-06T07:13:31;98750.47;;;22.63;76.91
33161;BME280;19522;45.656;11.302;2022-09-06T07:16:22;98743.38;;;22.72;76.49
33161;BME280;19522;45.656;11.302;2022-09-06T07:18:51;98743.91;;;22.97;73.70
33161;BME280;19522;45.656;11.302;2022-09-06T07:21:20;98752.16;;;23.19;72.92
33161;BME280;19522;45.656;11.302;2022-09-06T07:23:50;98758.47;;;23.52;72.65
33161;BME280;19522;45.656;11.302;2022-09-06T07:26:18;98725.34;;;23.73;70.75
33161;BME280;19522;45.656;11.302;2022-09-06T07:28:43;98749.81;;;24.34;68.71
33161;BME280;19522;45.656;11.302;2022-09-06T07:31:11;98748.31;;;24.85;67.56
33161;BME280;19522;45.656;11.302;2022-09-06T07:33:37;98748.63;;;25.30;64.33
33161;BME280;19522;45.656;11.302;2022-09-06T07:36:05;98719.72;;;25.57;62.89
33161;BME280;19522;45.656;11.302;2022-09-06T07:38:32;98738.50;;;26.06;61.98
33161;BME280;19522;45.656;11.302;2022-09-06T07:41:05;98742.00;;;26.38;60.07
33161;BME280;19522;45.656;11.302;2022-09-06T07:43:31;98736.28;;;26.69;57.85
33161;BME280;19522;45.656;11.302;2022-09-06T07:46:04;98737.44;;;26.57;57.89
33161;BME280;19522;45.656;11.302;2022-09-06T07:48:33;98706.88;;;26.47;59.03
33161;BME280;19522;45.656;11.302;2022-09-06T07:51:13;98726.56;;;26.61;57.17
33161;BME280;19522;45.656;11.302;2022-09-06T07:53:41;98740.88;;;26.44;57.60
33161;BME280;19522;45.656;11.302;2022-09-06T07:56:09;98738.81;;;26.65;58.81
33161;BME280;19522;45.656;11.302;2022-09-06T07:58:35;98715.31;;;26.32;56.80
33161;BME280;19522;45.656;11.302;2022-09-06T08:03:46;98752.41;;;26.06;59.62
33161;BME280;19522;45.656;11.302;2022-09-06T08:06:12;98739.06;;;26.03;61.47
33161;BME280;19522;45.656;11.302;2022-09-06T08:08:38;98744.19;;;26.46;61.94
33161;BME280;19522;45.656;11.302;2022-09-06T08:11:04;98757.97;;;26.82;61.90
33161;BME280;19522;45.656;11.302;2022-09-06T08:13:32;98729.25;;;26.26;61.38
33161;BME280;19522;45.656;11.302;2022-09-06T08:15:59;98745.50;;;26.64;60.96
33161;BME280;19522;45.656;11.302;2022-09-06T08:18:25;98725.91;;;26.80;58.60
33161;BME280;19522;45.656;11.302;2022-09-06T08:20:50;98745.91;;;26.92;59.72
33161;BME280;19522;45.656;11.302;2022-09-06T08:23:16;98746.56;;;26.73;57.69
33161;BME280;19522;45.656;11.302;2022-09-06T08:25:42;98745.97;;;26.82;58.27
33161;BME280;19522;45.656;11.302;2022-09-06T08:28:07;98717.03;;;26.72;57.15
33161;BME280;19522;45.656;11.302;2022-09-06T08:30:32;98743.13;;;26.92;57.55
33161;BME280;19522;45.656;11.302;2022-09-06T08:32:59;98746.63;;;27.08;57.47
33161;BME280;19522;45.656;11.302;2022-09-06T08:35:25;98732.94;;;27.12;59.73
33161;BME280;19522;45.656;11.302;2022-09-06T08:37:50;98758.56;;;27.14;59.19
33161;BME280;19522;45.656;11.302;2022-09-06T08:40:19;98747.34;;;27.24;55.64
33161;BME280;19522;45.656;11.302;2022-09-06T08:42:48;98729.72;;;26.94;56.37
33161;BME280;19522;45.656;11.302;2022-09-06T08:45:16;98742.41;;;27.16;56.34
33161;BME280;19522;45.656;11.302;2022-09-06T08:47:46;98737.22;;;26.99;56.47
33161;BME280;19522;45.656;11.302;2022-09-06T08:50:13;98731.97;;;26.92;56.06
33161;BME280;19522;45.656;11.302;2022-09-06T08:55:52;98744.94;;;27.47;56.33
33161;BME280;19522;45.656;11.302;2022-09-06T09:01:05;98731.31;;;27.05;54.65
33161;BME280;19522;45.656;11.302;2022-09-06T09:03:36;98733.59;;;27.33;56.49
33161;BME280;19522;45.656;11.302;2022-09-06T09:06:05;98743.56;;;27.74;56.79
33161;BME280;19522;45.656;11.302;2022-09-06T09:11:24;98713.03;;;27.24;55.31
33161;BME280;19522;45.656;11.302;2022-09-06T09:13:52;98699.09;;;27.24;56.56
33161;BME280;19522;45.656;11.302;2022-09-06T09:16:19;98716.63;;;27.29;55.74
33161;BME280;19522;45.656;11.302;2022-09-06T09:18:48;98742.16;;;27.07;56.02
33161;BME280;19522;45.656;11.302;2022-09-06T09:21:16;98737.72;;;27.06;57.39
33161;BME280;19522;45.656;11.302;2022-09-06T09:23:48;98726.50;;;27.16;56.91
33161;BME280;19522;45.656;11.302;2022-09-06T09:26:16;98725.91;;;27.19;56.70
33161;BME280;19522;45.656;11.302;2022-09-06T09:29:00;98732.72;;;27.37;55.86
33161;BME280;19522;45.656;11.302;2022-09-06T09:31:33;98733.44;;;27.19;56.53
33161;BME280;19522;45.656;11.302;2022-09-06T09:33:59;98722.75;;;27.31;56.31
33161;BME280;19522;45.656;11.302;2022-09-06T09:36:28;98689.78;;;27.09;56.89
33161;BME280;19522;45.656;11.302;2022-09-06T09:38:54;98714.88;;;27.38;57.42
33161;BME280;19522;45.656;11.302;2022-09-06T09:41:47;98715.53;;;27.60;55.08
33161;BME280;19522;45.656;11.302;2022-09-06T09:44:18;98714.72;;;27.83;53.89
33161;BME280;19522;45.656;11.302;2022-09-06T09:46:44;98718.09;;;27.80;53.90
33161;BME280;19522;45.656;11.302;2022-09-06T09:49:10;98717.19;;;27.85;54.24
33161;BME280;19522;45.656;11.302;2022-09-06T09:51:44;98701.19;;;27.96;55.70
33161;BME280;19522;45.656;11.302;2022-09-06T09:54:12;98698.31;;;27.77;53.86
33161;BME280;19522;45.656;11.302;2022-09-06T09:56:51;98705.38;;;27.45;55.59
33161;BME280;19522;45.656;11.302;2022-09-06T10:02:18;98683.44;;;27.87;54.92
33161;BME280;19522;45.656;11.302;2022-09-06T10:04:49;98669.06;;;27.98;55.08
33161;BME280;19522;45.656;11.302;2022-09-06T10:07:18;98679.56;;;28.07;55.78
33161;BME280;19522;45.656;11.302;2022-09-06T10:10:02;98663.72;;;28.02;55.54
33161;BME280;19522;45.656;11.302;2022-09-06T10:12:37;98687.84;;;28.17;54.52
33161;BME280;19522;45.656;11.302;2022-09-06T10:15:04;98690.84;;;28.21;53.87
33161;BME280;19522;45.656;11.302;2022-09-06T10:20:10;98637.75;;;28.26;54.47
33161;BME280;19522;45.656;11.302;2022-09-06T10:25:46;98679.41;;;28.41;51.47
33161;BME280;19522;45.656;11.302;2022-09-06T10:28:39;98680.34;;;28.56;51.51
33161;BME280;19522;45.656;11.302;2022-09-06T10:36:38;98651.44;;;29.32;49.68
33161;BME280;19522;45.656;11.302;2022-09-06T10:39:23;98659.78;;;29.51;49.47
33161;BME280;19522;45.656;11.302;2022-09-06T10:42:16;98661.91;;;28.93;49.81
33161;BME280;19522;45.656;11.302;2022-09-06T10:47:29;98642.63;;;29.25;50.04
33161;BME280;19522;45.656;11.302;2022-09-06T10:49:57;98647.94;;;29.40;48.47
33161;BME280;19522;45.656;11.302;2022-09-06T10:52:33;98645.63;;;29.28;48.49
33161;BME280;19522;45.656;11.302;2022-09-06T10:55:02;98635.19;;;29.01;50.24
33161;BME280;19522;45.656;11.302;2022-09-06T10:57:50;98635.84;;;28.98;48.15
33161;BME280;19522;45.656;11.302;2022-09-06T11:00:16;98625.91;;;29.05;49.56
33161;BME280;19522;45.656;11.302;2022-09-06T11:03:00;98616.97;;;28.89;47.88
33161;BME280;19522;45.656;11.302;2022-09-06T11:05:35;98624.91;;;29.15;49.55
33161;BME280;19522;45.656;11.302;2022-09-06T11:10:54;98595.38;;;28.95;49.09
33161;BME280;19522;45.656;11.302;2022-09-06T11:13:26;98587.19;;;28.99;47.83
33161;BME280;19522;45.656;11.302;2022-09-06T11:16:17;98609.31;;;29.42;48.46
33161;BME280;19522;45.656;11.302;2022-09-06T11:24:12;98607.78;;;29.78;46.67
33161;BME280;19522;45.656;11.302;2022-09-06T11:29:29;98582.97;;;29.29;45.64
33161;BME280;19522;45.656;11.302;2022-09-06T11:31:58;98593.28;;;29.62;48.24
33161;BME280;19522;45.656;11.302;2022-09-06T11:34:31;98587.06;;;29.65;48.10
33161;BME280;19522;45.656;11.302;2022-09-06T11:37:00;98594.09;;;29.48;46.57
33161;BME280;19522;45.656;11.302;2022-09-06T11:39:30;98598.19;;;29.09;46.50
33161;BME280;19522;45.656;11.302;2022-09-06T11:42:01;98567.16;;;29.52;48.57
33161;BME280;19522;45.656;11.302;2022-09-06T11:48:10;98580.78;;;30.46;46.91
33161;BME280;19522;45.656;11.302;2022-09-06T11:53:59;98568.75;;;30.46;45.81
33161;BME280;19522;45.656;11.302;2022-09-06T11:56:30;98581.00;;;30.13;47.42
33161;BME280;19522;45.656;11.302;2022-09-06T12:07:38;98560.94;;;29.97;45.84
33161;BME280;19522;45.656;11.302;2022-09-06T12:12:55;98539.50;;;29.65;49.60
33161;BME280;19522;45.656;11.302;2022-09-06T12:15:43;98561.13;;;29.87;48.91
33161;BME280;19522;45.656;11.302;2022-09-06T12:21:10;98509.53;;;30.53;46.56
33161;BME280;19522;45.656;11.302;2022-09-06T12:24:03;98552.94;;;30.50;46.57
33161;BME280;19522;45.656;11.302;2022-09-06T12:26:50;98552.16;;;30.13;47.32
33161;BME280;19522;45.656;11.302;2022-09-06T12:29:28;98539.78;;;29.77;47.24
33161;BME280;19522;45.656;11.302;2022-09-06T12:31:58;98547.72;;;29.33;48.46
33161;BME280;19522;45.656;11.302;2022-09-06T12:34:39;98541.88;;;29.44;49.27
33161;BME280;19522;45.656;11.302;2022-09-06T12:37:08;98546.97;;;29.42;48.28
33161;BME280;19522;45.656;11.302;2022-09-06T12:39:35;98508.00;;;29.03;49.50
33161;BME280;19522;45.656;11.302;2022-09-06T12:42:11;98518.16;;;29.41;49.23
33161;BME280;19522;45.656;11.302;2022-09-06T12:44:45;98524.41;;;29.89;48.98
33161;BME280;19522;45.656;11.302;2022-09-06T12:47:28;98518.41;;;29.95;48.93
33161;BME280;19522;45.656;11.302;2022-09-06T12:50:11;98509.06;;;30.00;48.46
33161;BME280;19522;45.656;11.302;2022-09-06T12:55:37;98521.56;;;29.80;48.77
33161;BME280;19522;45.656;11.302;2022-09-06T12:58:08;98519.53;;;29.58;48.75
33161;BME280;19522;45.656;11.302;2022-09-06T13:00:46;98519.50;;;29.44;48.43
33161;BME280;19522;45.656;11.302;2022-09-06T13:03:22;98517.00;;;29.00;49.62
33161;BME280;19522;45.656;11.302;2022-09-06T13:05:49;98514.94;;;29.06;49.95
33161;BME280;19522;45.656;11.302;2022-09-06T13:08:30;98489.75;;;28.78;50.37
33161;BME280;19522;45.656;11.302;2022-09-06T13:10:57;98498.22;;;28.73;50.20
33161;BME280;19522;45.656;11.302;2022-09-06T13:13:24;98509.13;;;28.88;51.17
33161;BME280;19522;45.656;11.302;2022-09-06T13:15:51;98489.66;;;28.83;51.27
33161;BME280;19522;45.656;11.302;2022-09-06T13:20:44;98473.00;;;28.78;51.39
33161;BME280;19522;45.656;11.302;2022-09-06T13:23:21;98464.09;;;28.76;51.80
33161;BME280;19522;45.656;11.302;2022-09-06T13:25:52;98484.94;;;29.40;49.64
33161;BME280;19522;45.656;11.302;2022-09-06T13:28:26;98486.38;;;29.23;50.25
33161;BME280;19522;45.656;11.302;2022-09-06T13:33:41;98478.41;;;29.16;50.69
33161;BME280;19522;45.656;11.302;2022-09-06T13:38:44;98473.81;;;29.20;50.20
33161;BME280;19522;45.656;11.302;2022-09-06T13:44:26;98463.16;;;30.01;51.09
33161;BME280;19522;45.656;11.302;2022-09-06T13:46:52;98450.22;;;30.59;48.18
33161;BME280;19522;45.656;11.302;2022-09-06T13:49:20;98447.59;;;31.03;47.88
33161;BME280;19522;45.656;11.302;2022-09-06T13:51:47;98438.88;;;31.63;45.12
33161;BME280;19522;45.656;11.302;2022-09-06T13:54:14;98438.56;;;32.08;43.39
33161;BME280;19522;45.656;11.302;2022-09-06T13:56:40;98418.25;;;31.85;41.68
33161;BME280;19522;45.656;11.302;2022-09-06T13:59:07;98447.00;;;32.17;43.83
33161;BME280;19522;45.656;11.302;2022-09-06T14:01:37;98428.41;;;32.60;42.97
33161;BME280;19522;45.656;11.302;2022-09-06T14:04:04;98440.09;;;32.71;43.23
33161;BME280;19522;45.656;11.302;2022-09-06T14:06:30;98432.75;;;32.40;42.87
33161;BME280;19522;45.656;11.302;2022-09-06T14:08:55;98438.72;;;31.68;44.73
33161;BME280;19522;45.656;11.302;2022-09-06T14:11:21;98406.19;;;31.93;43.06
33161;BME280;19522;45.656;11.302;2022-09-06T14:13:46;98437.66;;;32.60;42.44
33161;BME280;19522;45.656;11.302;2022-09-06T14:16:12;98432.66;;;32.75;42.49
33161;BME280;19522;45.656;11.302;2022-09-06T14:18:38;98431.09;;;32.21;42.02
33161;BME280;19522;45.656;11.302;2022-09-06T14:21:04;98423.38;;;31.07;44.83
33161;BME280;19522;45.656;11.302;2022-09-06T14:23:30;98423.63;;;31.20;44.25
33161;BME280;19522;45.656;11.302;2022-09-06T14:26:00;98420.69;;;31.43;43.98
33161;BME280;19522;45.656;11.302;2022-09-06T14:28:26;98429.56;;;31.36;42.71
33161;BME280;19522;45.656;11.302;2022-09-06T14:30:52;98420.66;;;31.25;43.43
33161;BME280;19522;45.656;11.302;2022-09-06T14:33:18;98422.03;;;30.96;42.98
33161;BME280;19522;45.656;11.302;2022-09-06T14:35:45;98413.59;;;31.45;41.64
33161;BME280;19522;45.656;11.302;2022-09-06T14:38:10;98413.59;;;31.54;42.24
33161;BME280;19522;45.656;11.302;2022-09-06T14:40:37;98412.16;;;31.92;41.83
33161;BME280;19522;45.656;11.302;2022-09-06T14:43:03;98414.25;;;32.39;41.18
33161;BME280;19522;45.656;11.302;2022-09-06T14:45:32;98396.59;;;32.77;40.29